Time;durP1;ratioP1;P1;durP2;ratioP2;P2;SDS_P1;SDS_P2;PMS_P1;PMS_P2;Temp;Humidity;BMP_temperature;BMP_pressure;BME280_temperature;BME280_humidity;BME280_pressure;Samples;Min_cycle;Max_cycle;Signal;HPM_P1;HPM_P2
2022/04/15 00:02:06;;;;;;;13.23;6.45;;;;;;;11.28;100.00;100633.91;5070190;28;20206;-76
2022/04/15 00:04:34;;;;;;;6.38;5.70;;;;;;;11.24;100.00;100637.25;5034361;28;20195;-77
2022/04/15 00:07:01;;;;;;;11.50;6.68;;;;;;;11.24;100.00;100632.06;5069764;28;20226;-77
2022/04/15 00:09:28;;;;;;;9.30;5.22;;;;;;;11.25;100.00;100638.13;5049787;28;20192;-78
2022/04/15 00:11:56;;;;;;;7.50;5.60;;;;;;;10.98;100.00;100594.34;5067656;28;20199;-79
2022/04/15 00:14:23;;;;;;;6.00;5.40;;;;;;;11.15;100.00;100634.47;5069267;28;20191;-78
2022/04/15 00:16:50;;;;;;;6.95;5.35;;;;;;;11.22;100.00;100644.16;5070063;28;20195;-77
2022/04/15 00:19:17;;;;;;;14.20;5.30;;;;;;;11.07;100.00;100620.47;5069436;28;20201;-76
2022/04/15 00:21:45;;;;;;;6.95;5.63;;;;;;;11.24;100.00;100649.38;5069620;28;20206;-77
2022/04/15 00:24:11;;;;;;;5.90;4.65;;;;;;;11.19;100.00;100643.22;5032320;28;20199;-78
2022/04/15 00:26:38;;;;;;;6.82;5.00;;;;;;;11.15;100.00;100637.09;5069275;28;20209;-77
2022/04/15 00:29:06;;;;;;;6.63;4.78;;;;;;;11.22;100.00;100628.59;5069322;28;20625;-76
2022/04/15 00:31:34;;;;;;;7.10;4.55;;;;;;;11.25;100.00;100625.16;5069646;28;20615;-77
2022/04/15 00:34:02;;;;;;;10.48;5.13;;;;;;;11.06;100.00;100587.56;5037837;28;20227;-77
2022/04/15 00:36:29;;;;;;;11.00;5.05;;;;;;;11.23;100.00;100626.88;5034664;28;20210;-78
2022/04/15 00:38:56;;;;;;;10.70;5.25;;;;;;;11.25;100.00;100628.63;5071589;28;20207;-77
2022/04/15 00:41:23;;;;;;;7.78;5.30;;;;;;;11.22;100.00;100632.91;5073573;28;20226;-79
2022/04/15 00:43:54;;;;;;;10.15;6.60;;;;;;;11.11;100.00;100611.91;5021670;28;20616;-77
2022/04/15 00:46:22;;;;;;;9.63;6.65;;;;;;;11.18;100.00;100628.47;5073495;28;20620;-77
2022/04/15 00:48:49;;;;;;;9.70;6.65;;;;;;;11.14;100.00;100624.94;5073205;28;20203;-76
2022/04/15 00:51:16;;;;;;;8.82;6.32;;;;;;;11.14;100.00;100619.75;5073361;28;20276;-77
2022/04/15 00:53:45;;;;;;;9.27;6.30;;;;;;;10.94;100.00;100605.47;5073751;28;20206;-76
2022/04/15 00:56:13;;;;;;;8.70;5.93;;;;;;;11.16;100.00;100620.69;5073501;28;20202;-77
2022/04/15 00:58:41;;;;;;;11.60;6.63;;;;;;;11.10;100.00;100623.13;5021728;28;20203;-77
2022/04/15 01:01:08;;;;;;;9.98;7.50;;;;;;;10.89;100.00;100591.53;5072621;28;20218;-78
2022/04/15 01:03:37;;;;;;;9.82;7.03;;;;;;;11.05;100.00;100614.38;5073025;28;20213;-78
2022/04/15 01:06:07;;;;;;;12.80;8.20;;;;;;;10.87;100.00;100613.97;5072936;28;20199;-77
2022/04/15 01:08:38;;;;;;;13.52;7.63;;;;;;;10.91;100.00;100621.00;5072847;28;20237;-78
2022/04/15 01:11:07;;;;;;;11.45;7.93;;;;;;;10.61;100.00;100579.66;5072853;28;20282;-77
2022/04/15 01:13:36;;;;;;;17.20;7.78;;;;;;;10.80;100.00;100619.88;5037593;28;20199;-76
2022/04/15 01:16:03;;;;;;;16.45;9.13;;;;;;;10.80;100.00;100602.59;5036697;28;20203;-77
2022/04/15 01:18:29;;;;;;;15.77;8.38;;;;;;;10.73;100.00;100611.06;5072112;28;20651;-77
2022/04/15 01:20:58;;;;;;;14.18;8.45;;;;;;;10.60;100.00;100584.81;5073177;28;20230;-78
2022/04/15 01:23:26;;;;;;;15.85;9.38;;;;;;;10.72;100.00;100616.22;5072202;28;20201;-78
2022/04/15 01:25:53;;;;;;;17.45;9.48;;;;;;;10.74;100.00;100617.09;5072895;28;20209;-78
2022/04/15 01:28:20;;;;;;;14.55;8.63;;;;;;;10.73;100.00;100618.84;5037125;28;20281;-77
2022/04/15 01:30:48;;;;;;;12.93;6.88;;;;;;;10.73;100.00;100607.59;5072604;28;20198;-77
2022/04/15 01:33:15;;;;;;;9.27;5.68;;;;;;;10.72;100.00;100601.53;5072196;28;20199;-77
2022/04/15 01:35:42;;;;;;;13.38;6.07;;;;;;;10.70;100.00;100604.94;5072861;28;20203;-77
2022/04/15 01:38:14;;;;;;;12.43;6.20;;;;;;;10.70;100.00;100607.53;5072114;28;20202;-77
2022/04/15 01:40:44;;;;;;;12.20;6.70;;;;;;;10.62;100.00;100596.09;5072298;28;20231;-77
2022/04/15 01:43:11;;;;;;;7.85;5.93;;;;;;;10.57;100.00;100597.69;5072124;28;20245;-77
2022/04/15 01:45:38;;;;;;;5.55;4.82;;;;;;;10.36;100.00;100565.25;5019738;28;20203;-77
2022/04/15 01:48:05;;;;;;;6.25;4.25;;;;;;;10.33;100.00;100557.41;5071982;28;20202;-77
2022/04/15 01:50:32;;;;;;;4.57;4.20;;;;;;;10.62;100.00;100596.09;5071943;28;20255;-77
2022/04/15 01:52:59;;;;;;;5.10;4.03;;;;;;;10.68;100.00;100580.69;5071931;28;20655;-77
2022/04/15 01:55:27;;;;;;;7.82;4.57;;;;;;;10.52;100.00;100561.31;5071536;28;20206;-77
2022/04/15 01:57:56;;;;;;;6.18;4.53;;;;;;;10.80;100.00;100597.41;5072485;28;20693;-79
2022/04/15 02:00:23;;;;;;;6.88;4.55;;;;;;;10.58;100.00;100552.78;5071802;28;20223;-77
2022/04/15 02:02:50;;;;;;;7.60;5.30;;;;;;;10.72;100.00;100582.50;5071842;28;20199;-78
2022/04/15 02:05:17;;;;;;;15.50;6.72;;;;;;;10.40;100.00;100551.53;5071841;28;20225;-77
2022/04/15 02:07:43;;;;;;;11.18;6.13;;;;;;;10.64;100.00;100584.91;5020142;28;20194;-77
2022/04/15 02:10:11;;;;;;;11.85;5.75;;;;;;;10.56;100.00;100570.03;5071693;28;20645;-77
2022/04/15 02:12:38;;;;;;;9.90;5.65;;;;;;;10.30;100.00;100549.56;5071950;28;20202;-76
2022/04/15 02:15:08;;;;;;;7.95;5.50;;;;;;;10.68;100.00;100585.84;5071787;28;20585;-78
2022/04/15 02:17:35;;;;;;;16.77;5.55;;;;;;;10.66;100.00;100572.00;5036587;28;20209;-77
2022/04/15 02:20:02;;;;;;;8.55;5.47;;;;;;;10.70;100.00;100579.84;5071327;28;20671;-78
2022/04/15 02:22:28;;;;;;;12.45;5.18;;;;;;;10.65;100.00;100572.81;5019507;28;20203;-77
2022/04/15 02:24:55;;;;;;;7.22;5.20;;;;;;;10.66;100.00;100574.59;5071582;28;20205;-78
2022/04/15 02:27:22;;;;;;;6.53;4.75;;;;;;;10.61;100.00;100568.41;5071441;28;20217;-77
2022/04/15 02:29:49;;;;;;;12.52;7.43;;;;;;;10.58;100.00;100573.53;5036202;28;20671;-77
2022/04/15 02:32:17;;;;;;;11.52;6.35;;;;;;;10.65;100.00;100580.59;5071470;28;20198;-78
2022/04/15 02:34:44;;;;;;;8.88;5.82;;;;;;;10.60;100.00;100577.03;5019363;28;20241;-77
2022/04/15 02:37:11;;;;;;;9.60;6.28;;;;;;;10.55;100.00;100573.47;5070999;28;20271;-77
2022/04/15 02:39:37;;;;;;;5.18;3.80;;;;;;;10.41;100.00;100537.75;5071222;28;20203;-76
2022/04/15 02:42:05;;;;;;;5.70;4.20;;;;;;;10.86;100.00;100571.59;5071147;28;20218;-78
2022/04/15 02:44:32;;;;;;;7.72;2.95;;;;;;;10.81;93.14;100546.38;5035716;28;20202;-77
2022/04/15 02:46:59;;;;;;;2.78;2.60;;;;;;;11.43;87.07;100560.63;5071163;28;20198;-76
2022/04/15 02:49:28;;;;;;;3.75;2.90;;;;;;;11.69;83.44;100551.63;5071014;28;20207;-76
2022/04/15 02:51:55;;;;;;;5.53;3.03;;;;;;;12.08;78.79;100564.44;5071265;28;20195;-78
2022/04/15 02:54:22;;;;;;;6.05;3.58;;;;;;;11.99;81.22;100569.47;5019152;28;20709;-76
2022/04/15 02:56:49;;;;;;;5.25;4.35;;;;;;;11.81;86.01;100569.16;5069796;28;20798;-76
2022/04/15 02:59:17;;;;;;;9.38;5.28;;;;;;;11.74;90.97;100568.16;5070682;28;20671;-77
2022/04/15 03:01:45;;;;;;;11.38;6.63;;;;;;;11.43;99.53;100569.31;5070348;28;20246;-77
2022/04/15 03:04:12;;;;;;;12.55;6.43;;;;;;;11.27;100.00;100546.47;5070839;28;20199;-78
2022/04/15 03:06:41;;;;;;;17.75;10.27;;;;;;;11.26;100.00;100552.53;5071199;28;20274;-77
2022/04/15 03:09:08;;;;;;;10.20;7.07;;;;;;;11.13;100.00;100570.44;5071028;28;20199;-77
2022/04/15 03:11:37;;;;;;;9.40;6.57;;;;;;;10.76;100.00;100535.03;5070808;28;20651;-78
2022/04/15 03:14:05;;;;;;;9.77;7.55;;;;;;;10.82;100.00;100563.69;5070465;28;20198;-78
2022/04/15 03:16:31;;;;;;;8.65;7.30;;;;;;;10.52;100.00;100548.34;5070323;28;20223;-78
2022/04/15 03:18:58;;;;;;;10.63;7.40;;;;;;;10.38;100.00;100563.56;5070307;28;20222;-78
2022/04/15 03:21:25;;;;;;;10.02;7.28;;;;;;;10.29;100.00;100571.16;5070633;28;20254;-77
2022/04/15 03:23:54;;;;;;;54.70;25.35;;;;;;;10.33;100.00;100567.78;5070447;28;20222;-75
2022/04/15 03:26:21;;;;;;;12.43;8.77;;;;;;;10.60;100.00;100564.06;5018473;28;20199;-77
2022/04/15 03:28:48;;;;;;;10.15;7.70;;;;;;;10.42;100.00;100557.63;5070573;28;20281;-77
2022/04/15 03:31:15;;;;;;;16.15;7.93;;;;;;;10.37;100.00;100572.22;5070203;28;20191;-79
2022/04/15 03:33:42;;;;;;;25.35;14.57;;;;;;;9.87;100.00;100505.31;5031818;28;20585;-76
2022/04/15 03:36:09;;;;;;;14.93;8.60;;;;;;;10.17;100.00;100576.03;5050298;28;20697;-76
2022/04/15 03:38:35;;;;;;;15.55;9.40;;;;;;;10.13;100.00;100573.31;5050705;28;20227;-77
2022/04/15 03:41:04;;;;;;;12.20;8.60;;;;;;;9.62;100.00;100490.88;5050300;28;20239;-78
2022/04/15 03:43:30;;;;;;;14.25;8.60;;;;;;;9.99;100.00;100543.59;5050078;28;20199;-76
2022/04/15 03:45:57;;;;;;;12.38;9.02;;;;;;;10.10;100.00;100568.03;5050176;28;20265;-77
2022/04/15 03:48:25;;;;;;;15.88;8.07;;;;;;;10.12;100.00;100562.06;5050389;28;20199;-76
2022/04/15 03:50:52;;;;;;;11.23;7.97;;;;;;;10.24;100.00;100552.00;5050216;28;20214;-76
2022/04/15 03:53:20;;;;;;;12.80;7.70;;;;;;;10.25;100.00;100521.78;5049666;28;20376;-76
2022/04/15 03:55:47;;;;;;;12.82;7.47;;;;;;;10.57;100.00;100556.22;5049887;28;20598;-76
2022/04/15 03:58:16;;;;;;;13.50;8.23;;;;;;;10.81;100.00;100557.63;5031072;28;20199;-77
2022/04/15 04:00:43;;;;;;;15.55;8.65;;;;;;;10.94;100.00;100543.22;5049969;28;20257;-77
2022/04/15 04:03:10;;;;;;;19.13;8.90;;;;;;;11.32;100.00;100565.63;5049786;28;20207;-78
2022/04/15 04:05:37;;;;;;;16.73;8.82;;;;;;;11.35;100.00;100567.38;5049916;28;20257;-76
2022/04/15 04:08:04;;;;;;;16.02;9.32;;;;;;;11.52;100.00;100559.94;5051491;28;20280;-77
2022/04/15 04:10:32;;;;;;;11.48;9.35;;;;;;;12.10;100.00;100565.34;5054125;28;20206;-78
2022/04/15 04:12:59;;;;;;;17.00;8.80;;;;;;;12.61;100.00;100567.88;5015479;28;20223;-75
2022/04/15 04:15:27;;;;;;;16.05;8.55;;;;;;;13.08;100.00;100549.41;5042333;28;20585;-76
2022/04/15 04:17:55;;;;;;;16.17;8.02;;;;;;;13.47;100.00;100554.25;5054047;28;20207;-75
2022/04/15 04:20:22;;;;;;;11.70;8.90;;;;;;;13.72;100.00;100574.50;5035066;28;20210;-75
2022/04/15 04:22:50;;;;;;;15.85;8.40;;;;;;;13.93;100.00;100548.63;5053096;28;20273;-76
2022/04/15 04:25:16;;;;;;;13.13;8.40;;;;;;;14.33;100.00;100568.97;5014655;28;20229;-75
2022/04/15 04:27:44;;;;;;;12.70;7.90;;;;;;;14.63;100.00;100572.66;5039420;28;20524;-77
2022/04/15 04:30:13;;;;;;;10.98;7.22;;;;;;;15.09;100.00;100547.69;5052986;28;20644;-76
2022/04/15 04:32:42;;;;;;;15.90;8.43;;;;;;;15.52;99.94;100574.88;5053250;28;20653;-79
2022/04/15 04:35:09;;;;;;;11.15;8.15;;;;;;;15.69;93.94;100568.81;5070589;28;20237;-77
2022/04/15 04:37:36;;;;;;;14.48;8.30;;;;;;;16.18;92.23;100581.94;5073580;28;20207;-79
2022/04/15 04:40:03;;;;;;;18.95;9.05;;;;;;;16.44;89.38;100580.19;5073118;28;20197;-78
2022/04/15 04:42:30;;;;;;;14.27;9.48;;;;;;;16.83;84.96;100580.16;5073505;28;20230;-78
2022/04/15 04:44:58;;;;;;;15.25;9.23;;;;;;;17.42;81.29;100601.78;5072799;28;20210;-78
2022/04/15 04:47:25;;;;;;;15.55;9.60;;;;;;;17.60;77.88;100609.59;5073915;28;20199;-76
2022/04/15 04:49:55;;;;;;;18.08;10.23;;;;;;;17.63;75.65;100604.31;5073190;28;20202;-78
2022/04/15 04:52:22;;;;;;;15.48;9.45;;;;;;;17.12;76.44;100616.72;5054977;28;20202;-77
2022/04/15 04:54:49;;;;;;;17.33;9.55;;;;;;;17.08;76.67;100620.28;5072784;28;20618;-78
2022/04/15 04:57:16;;;;;;;18.48;10.00;;;;;;;16.94;77.21;100624.66;5073032;28;20203;-76
2022/04/15 04:59:43;;;;;;;17.38;10.00;;;;;;;16.97;77.05;100614.19;5072577;28;20199;-77
2022/04/15 05:02:12;;;;;;;17.75;10.13;;;;;;;17.11;73.87;100622.88;5081815;28;20229;-78
2022/04/15 05:04:39;;;;;;;13.57;9.68;;;;;;;17.36;71.94;100626.28;5073533;28;20195;-77
2022/04/15 05:07:07;;;;;;;19.17;10.93;;;;;;;17.94;73.46;100626.91;5071726;28;20625;-77
2022/04/15 05:09:34;;;;;;;36.30;15.05;;;;;;;18.18;65.99;100631.97;5072255;28;20209;-77
2022/04/15 05:12:01;;;;;;;16.50;9.57;;;;;;;18.21;63.00;100636.34;5071809;28;20202;-76
2022/04/15 05:14:28;;;;;;;12.57;8.68;;;;;;;18.63;61.44;100616.75;5072127;28;20638;-77
2022/04/15 05:16:55;;;;;;;16.50;10.05;;;;;;;18.66;59.03;100630.72;5072796;28;20199;-76
2022/04/15 05:19:21;;;;;;;13.32;9.30;;;;;;;18.36;59.79;100593.34;5073605;28;20408;-79
2022/04/15 05:21:49;;;;;;;14.75;9.30;;;;;;;18.12;60.18;100626.75;5073080;28;20587;-78
2022/04/15 05:24:17;;;;;;;15.15;9.05;;;;;;;17.77;62.00;100647.09;5072793;28;20199;-80
2022/04/15 05:26:44;;;;;;;16.25;9.50;;;;;;;17.32;63.82;100641.16;5072741;28;20191;-80
2022/04/15 05:29:10;;;;;;;15.38;8.38;;;;;;;16.21;67.91;100648.22;5076261;28;20201;-81
2022/04/15 05:31:37;;;;;;;16.30;8.35;;;;;;;15.17;71.95;100599.09;5072229;28;20207;-81
2022/04/15 05:34:04;;;;;;;18.83;8.77;;;;;;;15.07;75.28;100649.53;5072592;28;20226;-81
2022/04/15 05:36:32;;;;;;;11.90;7.53;;;;;;;14.59;74.86;100644.84;5072616;28;20685;-81
2022/04/15 05:38:58;;;;;;;10.43;8.63;;;;;;;14.22;78.75;100647.97;5072092;28;20225;-78
2022/04/15 05:41:27;;;;;;;13.70;8.20;;;;;;;13.60;84.94;100640.38;5072655;28;20227;-79
2022/04/15 05:43:54;;;;;;;12.07;8.35;;;;;;;13.48;86.58;100624.63;5071987;28;20199;-78
2022/04/15 05:46:21;;;;;;;13.98;9.32;;;;;;;13.47;87.05;100628.06;5072187;28;20198;-78
2022/04/15 05:48:48;;;;;;;20.42;9.32;;;;;;;13.61;91.08;100641.25;5072311;28;20667;-79
2022/04/15 05:51:15;;;;;;;17.60;9.82;;;;;;;13.06;93.77;100562.41;5072415;28;20605;-78
2022/04/15 05:53:42;;;;;;;14.27;9.55;;;;;;;13.57;96.27;100636.84;5071848;28;20205;-78
2022/04/15 05:56:09;;;;;;;12.85;9.40;;;;;;;13.57;96.73;100640.34;5071655;28;20195;-79
2022/04/15 05:58:37;;;;;;;11.88;9.10;;;;;;;13.54;97.16;100635.09;5071616;28;20198;-78
2022/04/15 06:01:06;;;;;;;17.58;9.70;;;;;;;13.68;96.03;100643.06;5071638;28;20732;-79
2022/04/15 06:03:33;;;;;;;14.75;9.57;;;;;;;13.84;95.84;100631.97;5071594;28;20249;-77
2022/04/15 06:06:01;;;;;;;17.67;10.32;;;;;;;13.81;97.53;100635.41;5071592;28;20203;-77
2022/04/15 06:08:28;;;;;;;18.38;9.75;;;;;;;14.04;96.13;100634.75;5071721;28;20221;-78
2022/04/15 06:10:55;;;;;;;24.23;10.63;;;;;;;13.73;94.40;100561.44;5071272;28;20195;-78
2022/04/15 06:13:25;;;;;;;11.35;9.63;;;;;;;14.16;94.85;100627.91;5071304;28;20206;-77
2022/04/15 06:15:56;;;;;;;15.00;8.15;;;;;;;13.95;94.03;100643.34;5071419;28;20697;-78
2022/04/15 06:18:23;;;;;;;18.98;9.45;;;;;;;13.94;96.52;100627.72;5071402;28;20256;-76
2022/04/15 06:20:50;;;;;;;27.77;14.70;;;;;;;14.41;100.00;100628.19;5071281;28;20670;-77
2022/04/15 06:23:19;;;;;;;15.70;9.52;;;;;;;14.37;93.08;100632.50;5071178;28;20234;-77
2022/04/15 06:25:46;;;;;;;12.77;8.95;;;;;;;14.37;92.22;100638.59;5019430;28;20195;-77
2022/04/15 06:28:14;;;;;;;18.40;9.60;;;;;;;14.32;91.00;100640.25;5071118;28;20530;-77
2022/04/15 06:30:41;;;;;;;14.07;9.95;;;;;;;14.43;90.53;100636.88;5070376;28;20682;-76
2022/04/15 06:33:09;;;;;;;17.70;10.25;;;;;;;14.58;89.10;100637.91;5070939;28;20208;-77
2022/04/15 06:35:36;;;;;;;14.93;10.02;;;;;;;14.56;90.38;100629.16;5071101;28;20219;-76
2022/04/15 06:38:03;;;;;;;21.25;10.43;;;;;;;14.60;90.73;100625.72;5070718;28;20197;-76
2022/04/15 06:40:30;;;;;;;18.05;10.38;;;;;;;14.75;88.15;100630.19;5070792;28;20191;-76
2022/04/15 06:42:57;;;;;;;30.42;11.38;;;;;;;14.89;85.26;100633.75;5035443;28;20417;-79
2022/04/15 06:45:24;;;;;;;26.67;10.88;;;;;;;15.00;85.36;100639.91;5070869;28;20206;-78
2022/04/15 06:47:50;;;;;;;16.58;10.90;;;;;;;14.88;85.81;100613.72;5018975;28;20210;-78
2022/04/15 06:50:20;;;;;;;16.90;10.43;;;;;;;14.88;86.87;100632.88;5070582;28;20731;-77
2022/04/15 06:52:46;;;;;;;15.63;10.65;;;;;;;14.58;87.07;100622.22;5070702;28;20203;-75
2022/04/15 06:55:13;;;;;;;13.93;9.52;;;;;;;14.84;84.86;100632.84;5070468;28;20221;-77
2022/04/15 06:57:40;;;;;;;22.52;9.95;;;;;;;14.98;82.93;100638.16;5070488;28;20209;-74
2022/04/15 07:00:08;;;;;;;16.33;9.82;;;;;;;15.06;81.82;100629.50;5070611;28;20207;-76
2022/04/15 07:02:35;;;;;;;16.02;9.27;;;;;;;15.03;80.33;100624.25;5070301;28;20253;-76
2022/04/15 07:05:02;;;;;;;18.95;10.38;;;;;;;15.14;81.87;100635.66;5070549;28;20571;-76
2022/04/15 07:07:31;;;;;;;13.52;10.05;;;;;;;15.22;79.88;100639.19;5070196;28;20203;-76
2022/04/15 07:09:58;;;;;;;16.00;9.95;;;;;;;15.35;77.68;100630.53;5070267;28;20202;-75
2022/04/15 07:12:25;;;;;;;11.55;9.75;;;;;;;15.22;81.10;100644.41;5070457;28;20198;-76
2022/04/15 07:14:52;;;;;;;14.77;10.45;;;;;;;15.43;80.83;100638.41;5070137;28;20670;-76
2022/04/15 07:17:19;;;;;;;18.80;10.65;;;;;;;15.46;82.90;100607.03;5070300;28;20679;-76
2022/04/15 07:19:45;;;;;;;21.15;11.80;;;;;;;15.50;82.59;100607.97;5070370;28;20573;-76
2022/04/15 07:22:12;;;;;;;19.75;11.25;;;;;;;15.96;82.26;100628.13;5070508;28;20223;-76
2022/04/15 07:24:40;;;;;;;14.25;11.00;;;;;;;15.88;82.32;100611.53;5070205;28;20202;-77
2022/04/15 07:27:07;;;;;;;17.48;11.60;;;;;;;16.25;80.99;100639.50;5070156;28;20199;-76
2022/04/15 07:29:34;;;;;;;21.85;11.57;;;;;;;16.30;80.16;100626.44;5035090;28;20593;-75
2022/04/15 07:32:01;;;;;;;18.77;11.82;;;;;;;16.49;80.68;100629.91;5018421;28;20717;-76
2022/04/15 07:34:28;;;;;;;15.55;11.20;;;;;;;16.62;80.53;100618.59;5051216;28;20234;-77
2022/04/15 07:36:54;;;;;;;27.88;13.10;;;;;;;16.27;81.44;100632.53;5070096;28;20682;-76
2022/04/15 07:39:22;;;;;;;35.92;12.98;;;;;;;16.15;82.75;100616.84;5070133;28;20289;-77
2022/04/15 07:41:52;;;;;;;17.38;11.85;;;;;;;16.38;83.24;100627.28;5071549;28;20743;-76
2022/04/15 07:44:19;;;;;;;27.52;12.38;;;;;;;16.36;84.81;100631.66;5074457;28;20260;-76
2022/04/15 07:46:47;;;;;;;18.77;12.45;;;;;;;16.59;82.28;100608.13;5074441;28;20259;-77
2022/04/15 07:49:14;;;;;;;20.00;11.48;;;;;;;16.76;81.52;100624.69;5074327;28;20191;-76
2022/04/15 07:51:41;;;;;;;27.00;11.98;;;;;;;16.72;82.35;100621.22;5074059;28;20697;-76
2022/04/15 07:54:09;;;;;;;22.98;11.35;;;;;;;17.09;79.42;100616.75;5074032;28;20586;-77
2022/04/15 07:56:36;;;;;;;25.45;12.23;;;;;;;16.87;79.58;100620.31;5074207;28;20198;-76
2022/04/15 07:59:05;;;;;;;23.73;12.73;;;;;;;16.92;79.78;100600.22;5073899;28;20198;-75
2022/04/15 08:01:32;;;;;;;28.33;12.63;;;;;;;17.25;77.78;100612.34;5073974;28;20195;-79
2022/04/15 08:04:00;;;;;;;18.17;11.85;;;;;;;17.55;76.53;100608.72;5073658;28;20218;-77
2022/04/15 08:06:29;;;;;;;19.33;11.52;;;;;;;17.56;74.48;100618.31;5073848;28;20259;-75
2022/04/15 08:08:56;;;;;;;25.67;11.88;;;;;;;17.48;76.36;100620.13;5073968;28;20293;-76
2022/04/15 08:11:24;;;;;;;27.35;11.77;;;;;;;17.95;73.56;100612.88;5055016;28;20191;-76
2022/04/15 08:13:51;;;;;;;19.02;11.63;;;;;;;18.11;71.77;100608.41;5074599;28;20260;-76
2022/04/15 08:16:20;;;;;;;18.13;11.70;;;;;;;18.39;70.71;100609.06;5074386;28;20199;-78
2022/04/15 08:18:48;;;;;;;21.50;11.05;;;;;;;18.16;69.94;100607.47;5073776;28;20198;-78
2022/04/15 08:21:15;;;;;;;14.98;10.80;;;;;;;17.87;70.60;100588.47;5038100;28;20202;-76
2022/04/15 08:23:43;;;;;;;13.60;10.73;;;;;;;18.23;70.84;100600.44;5073549;28;20296;-76
2022/04/15 08:26:10;;;;;;;13.75;10.45;;;;;;;18.36;69.66;100603.84;5054969;28;20206;-77
2022/04/15 08:28:36;;;;;;;22.15;11.20;;;;;;;18.52;68.38;100597.59;5037955;28;20256;-76
2022/04/15 08:31:03;;;;;;;19.33;11.38;;;;;;;18.73;66.88;100605.25;5073256;28;20199;-76
2022/04/15 08:33:31;;;;;;;20.75;10.10;;;;;;;18.90;65.35;100608.63;5073098;28;20287;-76
2022/04/15 08:35:58;;;;;;;22.25;9.48;;;;;;;18.97;63.02;100594.53;5073287;28;20203;-76
2022/04/15 08:38:25;;;;;;;13.40;8.38;;;;;;;18.80;61.01;100604.31;5038024;28;20201;-76
2022/04/15 08:40:56;;;;;;;16.23;7.20;;;;;;;18.62;60.77;100594.03;5073276;28;20237;-76
2022/04/15 08:43:24;;;;;;;10.27;6.75;;;;;;;18.46;58.64;100595.00;5073451;28;20227;-78
2022/04/15 08:45:51;;;;;;;20.60;7.53;;;;;;;18.52;57.85;100594.97;5073100;28;20203;-78
2022/04/15 08:48:18;;;;;;;15.60;6.60;;;;;;;18.80;55.71;100573.66;5073074;28;20256;-79
2022/04/15 08:50:46;;;;;;;9.32;5.18;;;;;;;19.20;54.07;100583.72;5073300;28;20723;-77
2022/04/15 08:53:15;;;;;;;10.45;6.28;;;;;;;19.33;54.28;100584.47;5072417;28;20198;-78
2022/04/15 08:55:42;;;;;;;13.60;6.35;;;;;;;19.61;52.59;100583.25;5054438;28;20597;-78
2022/04/15 08:58:08;;;;;;;6.93;5.28;;;;;;;19.85;51.92;100585.50;5072903;28;20659;-77
2022/04/15 09:00:36;;;;;;;6.25;4.38;;;;;;;19.90;48.70;100552.13;5072834;28;20195;-78
2022/04/15 09:03:03;;;;;;;7.00;4.72;;;;;;;20.24;48.40;100573.50;5072643;28;20222;-79
2022/04/15 09:05:30;;;;;;;13.82;5.00;;;;;;;19.98;47.04;100550.22;5072982;28;20306;-78
2022/04/15 09:08:07;;;;;;;9.68;4.90;;;;;;;20.36;48.31;100569.81;5072502;28;20199;-78
2022/04/15 09:10:34;;;;;;;8.88;5.10;;;;;;;20.58;49.07;100568.56;5072601;28;20202;-77
2022/04/15 09:13:03;;;;;;;10.18;4.80;;;;;;;20.23;48.27;100546.28;5072921;28;20206;-77
2022/04/15 09:15:29;;;;;;;10.05;5.18;;;;;;;20.60;48.12;100564.13;5072647;28;20205;-77
2022/04/15 09:17:59;;;;;;;6.18;4.97;;;;;;;20.42;48.85;100548.63;5072539;28;20566;-78
2022/04/15 09:20:29;;;;;;;5.32;4.72;;;;;;;20.44;48.39;100552.13;5072818;28;20199;-77
2022/04/15 09:22:57;;;;;;;10.95;5.25;;;;;;;20.61;48.01;100540.38;5072460;28;20230;-77
2022/04/15 09:25:29;;;;;;;6.13;4.93;;;;;;;20.68;48.10;100528.84;5072595;28;20256;-77
2022/04/15 09:27:57;;;;;;;9.75;5.10;;;;;;;20.89;48.44;100538.09;5072886;28;20218;-81
2022/04/15 09:30:35;;;;;;;8.38;5.65;;;;;;;20.89;48.12;100532.81;5073117;28;20198;-78
2022/04/15 09:33:03;;;;;;;8.35;6.50;;;;;;;20.99;48.64;100531.72;5072468;28;20275;-78
2022/04/15 09:35:30;;;;;;;9.63;6.20;;;;;;;20.82;48.23;100515.38;5072186;28;20271;-77
2022/04/15 09:38:03;;;;;;;10.65;6.80;;;;;;;20.87;48.46;100526.69;5072283;28;20572;-77
2022/04/15 09:40:35;;;;;;;11.10;6.22;;;;;;;21.09;48.62;100521.84;5072442;28;20207;-78
2022/04/15 09:43:04;;;;;;;11.80;5.93;;;;;;;21.25;47.48;100518.91;5072207;28;20218;-78
2022/04/15 09:45:34;;;;;;;12.10;5.90;;;;;;;21.18;47.04;100512.03;5072193;28;20282;-78
2022/04/15 09:48:03;;;;;;;6.25;5.00;;;;;;;21.20;46.15;100509.34;5071790;28;20195;-79
2022/04/15 09:50:34;;;;;;;7.72;4.90;;;;;;;20.94;45.28;100448.38;5072026;28;20744;-77
2022/04/15 09:53:09;;;;;;;11.60;5.00;;;;;;;21.45;44.68;100517.56;5021002;28;20722;-79
2022/04/15 09:55:40;;;;;;;8.15;5.00;;;;;;;21.43;45.33;100508.84;5071869;28;20741;-78
2022/04/15 09:58:12;;;;;;;6.47;4.28;;;;;;;21.39;45.83;100504.53;5071592;28;20198;-77
2022/04/15 10:00:40;;;;;;;6.32;4.78;;;;;;;21.22;46.36;100487.28;5071854;28;20202;-80
2022/04/15 10:03:08;;;;;;;8.80;4.55;;;;;;;21.04;46.20;100500.00;5071706;28;20230;-79
2022/04/15 10:05:36;;;;;;;4.85;4.13;;;;;;;21.30;46.29;100502.13;5070599;28;20260;-77
2022/04/15 10:08:03;;;;;;;5.95;4.55;;;;;;;21.65;46.02;100491.63;5071863;28;20286;-77
2022/04/15 10:10:31;;;;;;;8.63;5.00;;;;;;;21.86;45.36;100496.38;5071560;28;20654;-81
2022/04/15 10:13:03;;;;;;;11.70;4.80;;;;;;;21.87;45.27;100491.97;5071440;28;20285;-80
2022/04/15 10:15:31;;;;;;;8.00;4.55;;;;;;;21.82;45.39;100478.88;5071558;28;20190;-77
2022/04/15 10:17:59;;;;;;;9.50;4.30;;;;;;;21.83;45.51;100463.91;5071603;28;20202;-78
2022/04/15 10:20:27;;;;;;;7.28;4.10;;;;;;;22.04;44.73;100489.81;5071340;28;20323;-79
2022/04/15 10:22:55;;;;;;;4.80;4.07;;;;;;;21.79;45.02;100463.13;5071391;28;20227;-78
2022/04/15 10:25:22;;;;;;;9.35;4.13;;;;;;;21.50;45.27;100470.84;5071052;28;20194;-76
2022/04/15 10:27:50;;;;;;;8.93;4.20;;;;;;;21.51;44.83;100476.09;5071209;28;20812;-76
2022/04/15 10:30:20;;;;;;;7.68;4.05;;;;;;;21.41;45.56;100455.22;5071204;28;20194;-75
2022/04/15 10:32:49;;;;;;;6.60;4.75;;;;;;;21.72;44.91;100451.81;5071096;28;20194;-77
2022/04/15 10:35:24;;;;;;;8.18;4.72;;;;;;;21.97;44.07;100456.53;5070863;28;20697;-77
2022/04/15 10:37:56;;;;;;;9.00;4.57;;;;;;;22.11;43.67;100457.91;5071011;28;20202;-77
2022/04/15 10:40:25;;;;;;;6.60;4.90;;;;;;;22.06;43.77;100446.59;5070899;28;20673;-77
2022/04/15 10:42:51;;;;;;;6.38;4.28;;;;;;;22.06;43.37;100451.00;5035291;28;20686;-76
2022/04/15 10:45:28;;;;;;;9.68;5.07;;;;;;;22.26;42.81;100432.00;5071051;28;20202;-77
2022/04/15 10:47:58;;;;;;;15.90;4.50;;;;;;;22.39;43.40;100428.09;5052382;28;20194;-77
2022/04/15 10:50:28;;;;;;;8.15;4.35;;;;;;;22.34;42.18;100441.44;5070098;28;20218;-77
2022/04/15 10:53:16;;;;;;;13.25;5.15;;;;;;;22.47;41.97;100441.97;5071133;28;20198;-75
2022/04/15 10:55:44;;;;;;;12.43;5.13;;;;;;;22.39;42.27;100439.56;5071326;28;20242;-76
2022/04/15 10:58:15;;;;;;;6.38;4.70;;;;;;;22.31;41.51;100435.38;5019869;28;20701;-78
2022/04/15 11:03:29;;;;;;;7.97;4.13;;;;;;;22.18;41.17;100425.16;5071045;28;20238;-77
2022/04/15 11:05:58;;;;;;;8.80;4.30;;;;;;;22.08;41.27;100423.63;5070858;28;20667;-75
2022/04/15 11:08:28;;;;;;;5.20;4.28;;;;;;;21.92;41.36;100419.69;5070997;28;20640;-76
2022/04/15 11:11:07;;;;;;;7.25;4.22;;;;;;;22.12;40.83;100421.78;5070937;28;20199;-77
2022/04/15 11:13:59;;;;;;;7.07;4.30;;;;;;;22.16;41.06;100420.78;5071243;28;20194;-78
2022/04/15 11:16:40;;;;;;;4.30;3.70;;;;;;;22.34;40.81;100422.06;5065881;28;20230;-76
2022/04/15 11:19:08;;;;;;;4.38;3.85;;;;;;;21.89;40.61;100401.25;5051224;28;20290;-75
2022/04/15 11:21:37;;;;;;;5.00;3.78;;;;;;;22.15;40.75;100397.94;5069309;28;20199;-75